sensor_id;sensor_type;location;lat;lon;timestamp;P1;durP1;ratioP1;P2;durP2;ratioP2
8849;SDS011;5638;50.860;4.698;2022-11-20T00:01:20;17.20;;;11.30;;
8849;SDS011;5638;50.860;4.698;2022-11-20T00:03:51;16.13;;;11.17;;
8849;SDS011;5638;50.860;4.698;2022-11-20T00:06:19;15.20;;;11.47;;
8849;SDS011;5638;50.860;4.698;2022-11-20T00:08:46;17.50;;;11.93;;
8849;SDS011;5638;50.860;4.698;2022-11-20T00:11:14;17.20;;;11.73;;
8849;SDS011;5638;50.860;4.698;2022-11-20T00:13:47;18.77;;;12.07;;
8849;SDS011;5638;50.860;4.698;2022-11-20T00:16:16;18.37;;;11.23;;
8849;SDS011;5638;50.860;4.698;2022-11-20T00:18:46;18.37;;;12.43;;
8849;SDS011;5638;50.860;4.698;2022-11-20T00:21:13;16.37;;;11.60;;
8849;SDS011;5638;50.860;4.698;2022-11-20T00:23:42;18.80;;;11.73;;
8849;SDS011;5638;50.860;4.698;2022-11-20T00:26:10;16.43;;;11.53;;
8849;SDS011;5638;50.860;4.698;2022-11-20T00:28:39;16.70;;;11.37;;
8849;SDS011;5638;50.860;4.698;2022-11-20T00:31:07;16.37;;;12.03;;
8849;SDS011;5638;50.860;4.698;2022-11-20T00:33:36;16.40;;;11.47;;
8849;SDS011;5638;50.860;4.698;2022-11-20T00:36:03;17.27;;;11.63;;
8849;SDS011;5638;50.860;4.698;2022-11-20T00:38:35;15.90;;;11.27;;
8849;SDS011;5638;50.860;4.698;2022-11-20T00:41:03;16.20;;;10.97;;
8849;SDS011;5638;50.860;4.698;2022-11-20T00:43:36;16.67;;;11.60;;
8849;SDS011;5638;50.860;4.698;2022-11-20T00:46:04;16.67;;;11.83;;
8849;SDS011;5638;50.860;4.698;2022-11-20T00:48:37;17.67;;;12.27;;
8849;SDS011;5638;50.860;4.698;2022-11-20T00:51:03;18.90;;;12.70;;
8849;SDS011;5638;50.860;4.698;2022-11-20T00:53:29;17.90;;;12.17;;
8849;SDS011;5638;50.860;4.698;2022-11-20T00:55:57;18.33;;;12.93;;
8849;SDS011;5638;50.860;4.698;2022-11-20T00:58:28;19.23;;;12.53;;
8849;SDS011;5638;50.860;4.698;2022-11-20T01:01:03;17.37;;;12.50;;
8849;SDS011;5638;50.860;4.698;2022-11-20T01:03:35;17.20;;;11.97;;
8849;SDS011;5638;50.860;4.698;2022-11-20T01:06:08;16.83;;;11.80;;
8849;SDS011;5638;50.860;4.698;2022-11-20T01:08:41;17.10;;;11.93;;
8849;SDS011;5638;50.860;4.698;2022-11-20T01:11:10;17.80;;;12.93;;
8849;SDS011;5638;50.860;4.698;2022-11-20T01:13:39;19.37;;;12.57;;
8849;SDS011;5638;50.860;4.698;2022-11-20T01:18:37;18.70;;;12.77;;
8849;SDS011;5638;50.860;4.698;2022-11-20T01:21:07;21.47;;;13.00;;
8849;SDS011;5638;50.860;4.698;2022-11-20T01:23:41;20.17;;;12.80;;
8849;SDS011;5638;50.860;4.698;2022-11-20T01:26:10;22.40;;;14.10;;
8849;SDS011;5638;50.860;4.698;2022-11-20T01:28:39;19.70;;;13.27;;
8849;SDS011;5638;50.860;4.698;2022-11-20T01:31:14;21.97;;;13.13;;
8849;SDS011;5638;50.860;4.698;2022-11-20T01:33:44;20.83;;;14.13;;
8849;SDS011;5638;50.860;4.698;2022-11-20T01:36:12;18.97;;;12.13;;
8849;SDS011;5638;50.860;4.698;2022-11-20T01:38:40;19.43;;;12.20;;
8849;SDS011;5638;50.860;4.698;2022-11-20T01:41:07;15.17;;;11.10;;
8849;SDS011;5638;50.860;4.698;2022-11-20T01:43:34;18.27;;;12.20;;
8849;SDS011;5638;50.860;4.698;2022-11-20T01:54:00;17.87;;;12.10;;
8849;SDS011;5638;50.860;4.698;2022-11-20T01:56:33;20.23;;;12.63;;
8849;SDS011;5638;50.860;4.698;2022-11-20T01:59:04;18.03;;;12.23;;
8849;SDS011;5638;50.860;4.698;2022-11-20T02:01:33;18.27;;;11.53;;
8849;SDS011;5638;50.860;4.698;2022-11-20T02:04:00;17.87;;;12.47;;
8849;SDS011;5638;50.860;4.698;2022-11-20T02:06:28;18.50;;;12.53;;
8849;SDS011;5638;50.860;4.698;2022-11-20T02:09:00;19.40;;;12.90;;
8849;SDS011;5638;50.860;4.698;2022-11-20T02:11:26;23.87;;;13.97;;
8849;SDS011;5638;50.860;4.698;2022-11-20T02:13:52;20.30;;;12.77;;
8849;SDS011;5638;50.860;4.698;2022-11-20T02:19:01;20.97;;;13.27;;
8849;SDS011;5638;50.860;4.698;2022-11-20T02:21:35;19.97;;;13.73;;
8849;SDS011;5638;50.860;4.698;2022-11-20T02:26:54;21.70;;;14.57;;
8849;SDS011;5638;50.860;4.698;2022-11-20T02:29:37;24.50;;;13.50;;
8849;SDS011;5638;50.860;4.698;2022-11-20T02:32:24;21.60;;;13.73;;
8849;SDS011;5638;50.860;4.698;2022-11-20T02:34:52;21.43;;;13.77;;
8849;SDS011;5638;50.860;4.698;2022-11-20T02:37:19;21.77;;;13.43;;
8849;SDS011;5638;50.860;4.698;2022-11-20T02:39:47;20.83;;;13.20;;
8849;SDS011;5638;50.860;4.698;2022-11-20T02:42:17;22.60;;;13.87;;
8849;SDS011;5638;50.860;4.698;2022-11-20T02:44:43;22.10;;;13.83;;
8849;SDS011;5638;50.860;4.698;2022-11-20T02:47:09;23.13;;;15.00;;
8849;SDS011;5638;50.860;4.698;2022-11-20T02:49:35;20.97;;;14.30;;
8849;SDS011;5638;50.860;4.698;2022-11-20T02:52:01;22.50;;;14.80;;
8849;SDS011;5638;50.860;4.698;2022-11-20T02:54:27;22.93;;;14.23;;
8849;SDS011;5638;50.860;4.698;2022-11-20T02:56:53;22.07;;;13.70;;
8849;SDS011;5638;50.860;4.698;2022-11-20T02:59:19;24.90;;;14.83;;
8849;SDS011;5638;50.860;4.698;2022-11-20T03:01:45;22.10;;;15.07;;
8849;SDS011;5638;50.860;4.698;2022-11-20T03:04:10;25.23;;;15.77;;
8849;SDS011;5638;50.860;4.698;2022-11-20T03:06:36;25.30;;;14.63;;
8849;SDS011;5638;50.860;4.698;2022-11-20T03:09:02;23.90;;;15.40;;
8849;SDS011;5638;50.860;4.698;2022-11-20T03:11:28;25.70;;;15.83;;
8849;SDS011;5638;50.860;4.698;2022-11-20T03:13:54;26.93;;;15.00;;
8849;SDS011;5638;50.860;4.698;2022-11-20T03:16:20;23.40;;;14.73;;
8849;SDS011;5638;50.860;4.698;2022-11-20T03:18:48;25.00;;;15.10;;
8849;SDS011;5638;50.860;4.698;2022-11-20T03:21:15;29.43;;;16.97;;
8849;SDS011;5638;50.860;4.698;2022-11-20T03:23:41;30.50;;;16.57;;
8849;SDS011;5638;50.860;4.698;2022-11-20T03:26:12;25.13;;;15.23;;
8849;SDS011;5638;50.860;4.698;2022-11-20T03:28:51;26.10;;;15.93;;
8849;SDS011;5638;50.860;4.698;2022-11-20T03:31:31;28.77;;;15.33;;
8849;SDS011;5638;50.860;4.698;2022-11-20T03:34:01;28.50;;;16.10;;
8849;SDS011;5638;50.860;4.698;2022-11-20T03:36:29;26.07;;;15.23;;
8849;SDS011;5638;50.860;4.698;2022-11-20T03:38:55;27.30;;;15.40;;
8849;SDS011;5638;50.860;4.698;2022-11-20T03:41:23;25.37;;;15.93;;
8849;SDS011;5638;50.860;4.698;2022-11-20T03:43:59;24.47;;;15.67;;
8849;SDS011;5638;50.860;4.698;2022-11-20T03:46:28;26.07;;;15.10;;
8849;SDS011;5638;50.860;4.698;2022-11-20T03:48:55;25.97;;;15.40;;
8849;SDS011;5638;50.860;4.698;2022-11-20T03:51:26;29.63;;;14.97;;
8849;SDS011;5638;50.860;4.698;2022-11-20T03:53:55;25.20;;;15.97;;
8849;SDS011;5638;50.860;4.698;2022-11-20T03:56:27;29.27;;;15.77;;
8849;SDS011;5638;50.860;4.698;2022-11-20T03:58:56;25.13;;;15.20;;
8849;SDS011;5638;50.860;4.698;2022-11-20T04:01:24;28.10;;;15.43;;
8849;SDS011;5638;50.860;4.698;2022-11-20T04:03:53;26.23;;;15.40;;
8849;SDS011;5638;50.860;4.698;2022-11-20T04:06:22;26.13;;;15.37;;
8849;SDS011;5638;50.860;4.698;2022-11-20T04:08:54;26.77;;;14.97;;
8849;SDS011;5638;50.860;4.698;2022-11-20T04:11:22;24.93;;;14.80;;
8849;SDS011;5638;50.860;4.698;2022-11-20T04:14:24;22.80;;;14.93;;
8849;SDS011;5638;50.860;4.698;2022-11-20T04:16:43;23.57;;;14.87;;
8849;SDS011;5638;50.860;4.698;2022-11-20T04:19:10;25.13;;;15.17;;
8849;SDS011;5638;50.860;4.698;2022-11-20T04:21:41;28.30;;;14.43;;
8849;SDS011;5638;50.860;4.698;2022-11-20T04:24:09;22.73;;;13.60;;
8849;SDS011;5638;50.860;4.698;2022-11-20T04:26:38;23.70;;;14.57;;
8849;SDS011;5638;50.860;4.698;2022-11-20T04:29:04;20.40;;;13.40;;
8849;SDS011;5638;50.860;4.698;2022-11-20T04:31:31;23.77;;;14.23;;
8849;SDS011;5638;50.860;4.698;2022-11-20T04:34:00;23.57;;;14.30;;
8849;SDS011;5638;50.860;4.698;2022-11-20T04:36:32;24.67;;;14.13;;
8849;SDS011;5638;50.860;4.698;2022-11-20T04:39:00;22.83;;;13.87;;
8849;SDS011;5638;50.860;4.698;2022-11-20T04:41:30;21.87;;;12.90;;
8849;SDS011;5638;50.860;4.698;2022-11-20T04:44:00;25.00;;;14.17;;
8849;SDS011;5638;50.860;4.698;2022-11-20T04:46:29;20.13;;;12.90;;
8849;SDS011;5638;50.860;4.698;2022-11-20T04:48:58;22.37;;;13.83;;
8849;SDS011;5638;50.860;4.698;2022-11-20T04:51:24;23.83;;;13.53;;
8849;SDS011;5638;50.860;4.698;2022-11-20T04:53:51;24.50;;;13.83;;
8849;SDS011;5638;50.860;4.698;2022-11-20T04:56:17;23.73;;;14.00;;
8849;SDS011;5638;50.860;4.698;2022-11-20T04:58:43;22.53;;;14.00;;
8849;SDS011;5638;50.860;4.698;2022-11-20T05:01:13;21.27;;;13.27;;
8849;SDS011;5638;50.860;4.698;2022-11-20T05:03:45;21.87;;;13.13;;
8849;SDS011;5638;50.860;4.698;2022-11-20T05:06:12;22.13;;;12.33;;
8849;SDS011;5638;50.860;4.698;2022-11-20T05:08:40;19.43;;;12.40;;
8849;SDS011;5638;50.860;4.698;2022-11-20T05:11:08;22.77;;;13.43;;
8849;SDS011;5638;50.860;4.698;2022-11-20T05:13:40;24.10;;;13.97;;
8849;SDS011;5638;50.860;4.698;2022-11-20T05:16:14;19.67;;;12.73;;
8849;SDS011;5638;50.860;4.698;2022-11-20T05:18:46;22.93;;;13.40;;
8849;SDS011;5638;50.860;4.698;2022-11-20T05:21:12;24.43;;;13.20;;
8849;SDS011;5638;50.860;4.698;2022-11-20T05:23:39;20.43;;;12.77;;
8849;SDS011;5638;50.860;4.698;2022-11-20T05:26:07;21.03;;;11.93;;
8849;SDS011;5638;50.860;4.698;2022-11-20T05:28:39;19.57;;;11.80;;
8849;SDS011;5638;50.860;4.698;2022-11-20T05:31:05;19.57;;;11.80;;
8849;SDS011;5638;50.860;4.698;2022-11-20T05:33:35;19.60;;;12.03;;
8849;SDS011;5638;50.860;4.698;2022-11-20T05:36:04;21.90;;;12.33;;
8849;SDS011;5638;50.860;4.698;2022-11-20T05:38:30;19.37;;;12.73;;
8849;SDS011;5638;50.860;4.698;2022-11-20T05:43:34;20.93;;;11.60;;
8849;SDS011;5638;50.860;4.698;2022-11-20T05:46:02;20.77;;;12.00;;
8849;SDS011;5638;50.860;4.698;2022-11-20T05:48:29;17.23;;;11.50;;
8849;SDS011;5638;50.860;4.698;2022-11-20T05:50:57;20.50;;;11.90;;
8849;SDS011;5638;50.860;4.698;2022-11-20T05:53:24;17.87;;;10.50;;
8849;SDS011;5638;50.860;4.698;2022-11-20T05:56:00;18.17;;;11.17;;
8849;SDS011;5638;50.860;4.698;2022-11-20T05:58:30;18.80;;;11.30;;
8849;SDS011;5638;50.860;4.698;2022-11-20T06:03:36;23.97;;;11.30;;
8849;SDS011;5638;50.860;4.698;2022-11-20T06:06:03;17.93;;;11.47;;
8849;SDS011;5638;50.860;4.698;2022-11-20T06:08:31;19.80;;;11.67;;
8849;SDS011;5638;50.860;4.698;2022-11-20T06:10:58;19.50;;;13.03;;
8849;SDS011;5638;50.860;4.698;2022-11-20T06:13:28;19.43;;;12.30;;
8849;SDS011;5638;50.860;4.698;2022-11-20T06:15:54;20.17;;;12.33;;
8849;SDS011;5638;50.860;4.698;2022-11-20T06:18:20;20.83;;;11.67;;
8849;SDS011;5638;50.860;4.698;2022-11-20T06:20:46;20.47;;;11.57;;
8849;SDS011;5638;50.860;4.698;2022-11-20T06:23:12;19.90;;;11.87;;
8849;SDS011;5638;50.860;4.698;2022-11-20T06:25:39;20.10;;;12.20;;
8849;SDS011;5638;50.860;4.698;2022-11-20T06:28:06;21.07;;;12.57;;
8849;SDS011;5638;50.860;4.698;2022-11-20T06:30:33;21.60;;;12.67;;
8849;SDS011;5638;50.860;4.698;2022-11-20T06:33:00;24.33;;;13.17;;
8849;SDS011;5638;50.860;4.698;2022-11-20T06:35:26;24.67;;;13.87;;
8849;SDS011;5638;50.860;4.698;2022-11-20T06:37:52;26.97;;;13.27;;
8849;SDS011;5638;50.860;4.698;2022-11-20T06:40:18;23.10;;;13.27;;
8849;SDS011;5638;50.860;4.698;2022-11-20T06:42:44;25.67;;;14.43;;
8849;SDS011;5638;50.860;4.698;2022-11-20T06:45:10;23.33;;;12.73;;
8849;SDS011;5638;50.860;4.698;2022-11-20T06:47:36;25.80;;;14.13;;
8849;SDS011;5638;50.860;4.698;2022-11-20T06:50:02;21.93;;;13.07;;
8849;SDS011;5638;50.860;4.698;2022-11-20T06:52:28;23.60;;;13.23;;
8849;SDS011;5638;50.860;4.698;2022-11-20T06:54:53;30.20;;;15.13;;
8849;SDS011;5638;50.860;4.698;2022-11-20T06:57:19;29.33;;;15.13;;
8849;SDS011;5638;50.860;4.698;2022-11-20T06:59:45;28.50;;;15.27;;
8849;SDS011;5638;50.860;4.698;2022-11-20T07:02:11;31.53;;;15.30;;
8849;SDS011;5638;50.860;4.698;2022-11-20T07:04:37;28.10;;;15.50;;
8849;SDS011;5638;50.860;4.698;2022-11-20T07:07:04;29.80;;;14.87;;
8849;SDS011;5638;50.860;4.698;2022-11-20T07:09:31;34.60;;;16.07;;
8849;SDS011;5638;50.860;4.698;2022-11-20T07:11:58;32.43;;;16.00;;
8849;SDS011;5638;50.860;4.698;2022-11-20T07:14:24;33.07;;;15.20;;
8849;SDS011;5638;50.860;4.698;2022-11-20T07:16:50;28.10;;;14.43;;
8849;SDS011;5638;50.860;4.698;2022-11-20T07:19:16;35.50;;;15.27;;
8849;SDS011;5638;50.860;4.698;2022-11-20T07:21:42;33.27;;;16.33;;
8849;SDS011;5638;50.860;4.698;2022-11-20T07:24:07;38.67;;;16.40;;
8849;SDS011;5638;50.860;4.698;2022-11-20T07:26:33;32.97;;;15.87;;
8849;SDS011;5638;50.860;4.698;2022-11-20T07:28:59;37.90;;;15.87;;
8849;SDS011;5638;50.860;4.698;2022-11-20T07:31:25;30.77;;;15.67;;
8849;SDS011;5638;50.860;4.698;2022-11-20T07:33:51;33.77;;;15.40;;
8849;SDS011;5638;50.860;4.698;2022-11-20T07:36:17;33.93;;;15.00;;
8849;SDS011;5638;50.860;4.698;2022-11-20T07:38:42;36.23;;;16.83;;
8849;SDS011;5638;50.860;4.698;2022-11-20T07:41:08;32.73;;;16.10;;
8849;SDS011;5638;50.860;4.698;2022-11-20T07:43:34;32.83;;;15.20;;
8849;SDS011;5638;50.860;4.698;2022-11-20T07:46:00;29.87;;;15.13;;
8849;SDS011;5638;50.860;4.698;2022-11-20T07:48:26;33.93;;;14.90;;
8849;SDS011;5638;50.860;4.698;2022-11-20T07:50:58;33.20;;;16.13;;
8849;SDS011;5638;50.860;4.698;2022-11-20T07:53:24;32.63;;;16.03;;
8849;SDS011;5638;50.860;4.698;2022-11-20T07:55:50;34.57;;;16.10;;
8849;SDS011;5638;50.860;4.698;2022-11-20T07:58:19;33.83;;;16.60;;
8849;SDS011;5638;50.860;4.698;2022-11-20T08:00:46;33.60;;;16.33;;
8849;SDS011;5638;50.860;4.698;2022-11-20T08:03:12;40.33;;;17.03;;
8849;SDS011;5638;50.860;4.698;2022-11-20T08:05:38;33.77;;;16.10;;
8849;SDS011;5638;50.860;4.698;2022-11-20T08:08:04;34.70;;;16.70;;
8849;SDS011;5638;50.860;4.698;2022-11-20T08:10:29;33.47;;;16.63;;
8849;SDS011;5638;50.860;4.698;2022-11-20T08:12:55;36.97;;;17.27;;
8849;SDS011;5638;50.860;4.698;2022-11-20T08:15:39;34.93;;;16.40;;
8849;SDS011;5638;50.860;4.698;2022-11-20T08:18:07;30.80;;;15.13;;
8849;SDS011;5638;50.860;4.698;2022-11-20T08:20:36;34.37;;;17.03;;
8849;SDS011;5638;50.860;4.698;2022-11-20T08:23:06;33.37;;;16.20;;
8849;SDS011;5638;50.860;4.698;2022-11-20T08:25:33;29.77;;;15.83;;
8849;SDS011;5638;50.860;4.698;2022-11-20T08:28:01;37.37;;;17.63;;
8849;SDS011;5638;50.860;4.698;2022-11-20T08:30:31;33.87;;;16.00;;
8849;SDS011;5638;50.860;4.698;2022-11-20T08:33:16;35.03;;;16.97;;
8849;SDS011;5638;50.860;4.698;2022-11-20T08:35:42;31.10;;;16.07;;
8849;SDS011;5638;50.860;4.698;2022-11-20T08:38:08;34.17;;;16.17;;
8849;SDS011;5638;50.860;4.698;2022-11-20T08:40:35;34.40;;;16.90;;
8849;SDS011;5638;50.860;4.698;2022-11-20T08:43:00;37.70;;;16.43;;
8849;SDS011;5638;50.860;4.698;2022-11-20T08:45:26;33.47;;;15.97;;
8849;SDS011;5638;50.860;4.698;2022-11-20T08:47:52;35.70;;;16.47;;
8849;SDS011;5638;50.860;4.698;2022-11-20T08:50:18;37.80;;;17.13;;
8849;SDS011;5638;50.860;4.698;2022-11-20T08:52:44;37.03;;;16.93;;
8849;SDS011;5638;50.860;4.698;2022-11-20T08:55:10;35.00;;;16.27;;
8849;SDS011;5638;50.860;4.698;2022-11-20T08:57:37;30.97;;;15.67;;
8849;SDS011;5638;50.860;4.698;2022-11-20T09:00:04;37.87;;;16.93;;
8849;SDS011;5638;50.860;4.698;2022-11-20T09:02:32;32.73;;;16.10;;
8849;SDS011;5638;50.860;4.698;2022-11-20T09:04:59;36.53;;;16.33;;
8849;SDS011;5638;50.860;4.698;2022-11-20T09:07:27;36.37;;;16.80;;
8849;SDS011;5638;50.860;4.698;2022-11-20T09:09:54;37.63;;;16.53;;
8849;SDS011;5638;50.860;4.698;2022-11-20T09:12:19;31.53;;;15.83;;
8849;SDS011;5638;50.860;4.698;2022-11-20T09:14:45;35.50;;;16.17;;
8849;SDS011;5638;50.860;4.698;2022-11-20T09:17:11;35.20;;;16.43;;
8849;SDS011;5638;50.860;4.698;2022-11-20T09:19:39;33.27;;;15.87;;
8849;SDS011;5638;50.860;4.698;2022-11-20T09:22:05;32.40;;;14.93;;
8849;SDS011;5638;50.860;4.698;2022-11-20T09:24:31;35.07;;;15.90;;
8849;SDS011;5638;50.860;4.698;2022-11-20T09:26:57;179.70;;;88.87;;
8849;SDS011;5638;50.860;4.698;2022-11-20T09:29:26;68.67;;;34.40;;
8849;SDS011;5638;50.860;4.698;2022-11-20T09:31:51;35.17;;;16.70;;
8849;SDS011;5638;50.860;4.698;2022-11-20T09:34:17;40.23;;;15.80;;
8849;SDS011;5638;50.860;4.698;2022-11-20T09:36:43;39.40;;;16.97;;
8849;SDS011;5638;50.860;4.698;2022-11-20T09:39:10;30.77;;;15.03;;
8849;SDS011;5638;50.860;4.698;2022-11-20T09:50:29;32.53;;;15.07;;
8849;SDS011;5638;50.860;4.698;2022-11-20T09:56:00;27.87;;;13.67;;
8849;SDS011;5638;50.860;4.698;2022-11-20T10:01:16;29.83;;;13.87;;
8849;SDS011;5638;50.860;4.698;2022-11-20T10:09:43;24.27;;;12.30;;
8849;SDS011;5638;50.860;4.698;2022-11-20T10:15:19;25.47;;;12.93;;
8849;SDS011;5638;50.860;4.698;2022-11-20T10:29:45;24.17;;;12.83;;
8849;SDS011;5638;50.860;4.698;2022-11-20T10:32:28;23.60;;;11.00;;
8849;SDS011;5638;50.860;4.698;2022-11-20T10:38:00;21.47;;;9.77;;
8849;SDS011;5638;50.860;4.698;2022-11-20T10:40:35;18.93;;;10.07;;
8849;SDS011;5638;50.860;4.698;2022-11-20T10:45:43;16.20;;;9.00;;
8849;SDS011;5638;50.860;4.698;2022-11-20T10:48:33;16.33;;;8.80;;
8849;SDS011;5638;50.860;4.698;2022-11-20T10:51:04;24.20;;;9.13;;
8849;SDS011;5638;50.860;4.698;2022-11-20T10:53:42;16.70;;;8.40;;
8849;SDS011;5638;50.860;4.698;2022-11-20T11:02:19;13.07;;;7.17;;
8849;SDS011;5638;50.860;4.698;2022-11-20T11:04:51;12.30;;;7.23;;
8849;SDS011;5638;50.860;4.698;2022-11-20T11:07:33;13.83;;;7.37;;
8849;SDS011;5638;50.860;4.698;2022-11-20T11:10:12;10.40;;;5.87;;
8849;SDS011;5638;50.860;4.698;2022-11-20T11:12:58;11.07;;;6.43;;
8849;SDS011;5638;50.860;4.698;2022-11-20T11:15:28;11.37;;;5.90;;
8849;SDS011;5638;50.860;4.698;2022-11-20T11:17:54;11.37;;;5.37;;
8849;SDS011;5638;50.860;4.698;2022-11-20T11:20:24;11.70;;;6.07;;
8849;SDS011;5638;50.860;4.698;2022-11-20T11:22:52;9.80;;;6.17;;
8849;SDS011;5638;50.860;4.698;2022-11-20T11:28:04;8.87;;;5.10;;
8849;SDS011;5638;50.860;4.698;2022-11-20T11:30:51;9.03;;;5.00;;
8849;SDS011;5638;50.860;4.698;2022-11-20T11:33:27;7.63;;;4.40;;
8849;SDS011;5638;50.860;4.698;2022-11-20T11:35:56;6.40;;;3.70;;
8849;SDS011;5638;50.860;4.698;2022-11-20T11:38:30;7.47;;;4.00;;
8849;SDS011;5638;50.860;4.698;2022-11-20T11:41:06;5.50;;;3.43;;
8849;SDS011;5638;50.860;4.698;2022-11-20T11:44:43;5.47;;;3.43;;
8849;SDS011;5638;50.860;4.698;2022-11-20T11:47:52;6.10;;;3.37;;
8849;SDS011;5638;50.860;4.698;2022-11-20T12:00:58;4.37;;;2.30;;
8849;SDS011;5638;50.860;4.698;2022-11-20T12:03:52;8.67;;;2.50;;
8849;SDS011;5638;50.860;4.698;2022-11-20T12:06:30;2.67;;;2.07;;
8849;SDS011;5638;50.860;4.698;2022-11-20T12:09:02;3.90;;;2.10;;
8849;SDS011;5638;50.860;4.698;2022-11-20T12:14:16;3.87;;;2.10;;
8849;SDS011;5638;50.860;4.698;2022-11-20T12:16:48;5.17;;;1.90;;
8849;SDS011;5638;50.860;4.698;2022-11-20T12:19:17;4.67;;;2.40;;
8849;SDS011;5638;50.860;4.698;2022-11-20T12:30:20;3.17;;;1.93;;
8849;SDS011;5638;50.860;4.698;2022-11-20T12:47:40;4.50;;;2.00;;
8849;SDS011;5638;50.860;4.698;2022-11-20T12:59:14;3.23;;;1.93;;
8849;SDS011;5638;50.860;4.698;2022-11-20T13:02:21;4.63;;;2.03;;
8849;SDS011;5638;50.860;4.698;2022-11-20T13:07:44;3.73;;;1.90;;
8849;SDS011;5638;50.860;4.698;2022-11-20T13:10:18;2.83;;;1.80;;
8849;SDS011;5638;50.860;4.698;2022-11-20T13:12:56;5.13;;;2.33;;
8849;SDS011;5638;50.860;4.698;2022-11-20T13:15:43;3.70;;;2.10;;
8849;SDS011;5638;50.860;4.698;2022-11-20T13:18:22;2.90;;;1.90;;
8849;SDS011;5638;50.860;4.698;2022-11-20T13:20:50;3.10;;;1.90;;
8849;SDS011;5638;50.860;4.698;2022-11-20T13:23:26;2.30;;;1.63;;
8849;SDS011;5638;50.860;4.698;2022-11-20T13:26:03;5.57;;;2.37;;
8849;SDS011;5638;50.860;4.698;2022-11-20T13:28:31;4.63;;;2.30;;
8849;SDS011;5638;50.860;4.698;2022-11-20T13:30:58;5.50;;;2.20;;
8849;SDS011;5638;50.860;4.698;2022-11-20T13:33:31;4.07;;;2.07;;
8849;SDS011;5638;50.860;4.698;2022-11-20T13:38:51;6.37;;;2.50;;
8849;SDS011;5638;50.860;4.698;2022-11-20T13:41:23;5.03;;;2.60;;
8849;SDS011;5638;50.860;4.698;2022-11-20T13:46:52;5.30;;;2.30;;
8849;SDS011;5638;50.860;4.698;2022-11-20T13:49:37;5.40;;;2.67;;
8849;SDS011;5638;50.860;4.698;2022-11-20T13:55:31;5.60;;;2.90;;
8849;SDS011;5638;50.860;4.698;2022-11-20T14:01:29;5.57;;;2.83;;
8849;SDS011;5638;50.860;4.698;2022-11-20T14:03:56;4.73;;;2.50;;
8849;SDS011;5638;50.860;4.698;2022-11-20T14:06:27;6.57;;;2.70;;
8849;SDS011;5638;50.860;4.698;2022-11-20T14:08:58;2.57;;;2.20;;
8849;SDS011;5638;50.860;4.698;2022-11-20T14:11:29;4.47;;;1.93;;
8849;SDS011;5638;50.860;4.698;2022-11-20T14:16:29;2.80;;;2.17;;
8849;SDS011;5638;50.860;4.698;2022-11-20T14:18:58;3.23;;;2.03;;
8849;SDS011;5638;50.860;4.698;2022-11-20T14:21:45;2.70;;;1.70;;
8849;SDS011;5638;50.860;4.698;2022-11-20T14:24:31;4.10;;;2.00;;
8849;SDS011;5638;50.860;4.698;2022-11-20T14:26:57;2.70;;;1.93;;
8849;SDS011;5638;50.860;4.698;2022-11-20T14:29:33;3.17;;;1.90;;
8849;SDS011;5638;50.860;4.698;2022-11-20T14:32:02;2.10;;;1.90;;
8849;SDS011;5638;50.860;4.698;2022-11-20T14:34:33;1.87;;;1.53;;
8849;SDS011;5638;50.860;4.698;2022-11-20T14:37:10;3.27;;;1.90;;
8849;SDS011;5638;50.860;4.698;2022-11-20T14:39:48;3.47;;;1.83;;
8849;SDS011;5638;50.860;4.698;2022-11-20T14:42:22;3.60;;;2.20;;
8849;SDS011;5638;50.860;4.698;2022-11-20T14:44:54;2.57;;;1.70;;
8849;SDS011;5638;50.860;4.698;2022-11-20T14:47:24;2.60;;;2.00;;
8849;SDS011;5638;50.860;4.698;2022-11-20T14:49:54;4.10;;;1.90;;
8849;SDS011;5638;50.860;4.698;2022-11-20T14:52:24;2.70;;;1.80;;
8849;SDS011;5638;50.860;4.698;2022-11-20T14:54:52;2.10;;;1.90;;
8849;SDS011;5638;50.860;4.698;2022-11-20T14:57:23;2.43;;;1.57;;
8849;SDS011;5638;50.860;4.698;2022-11-20T15:00:06;1.63;;;1.50;;
8849;SDS011;5638;50.860;4.698;2022-11-20T15:02:33;2.13;;;1.70;;
8849;SDS011;5638;50.860;4.698;2022-11-20T15:05:00;3.13;;;1.80;;
8849;SDS011;5638;50.860;4.698;2022-11-20T15:07:31;3.47;;;1.87;;
8849;SDS011;5638;50.860;4.698;2022-11-20T15:10:00;2.83;;;1.60;;
8849;SDS011;5638;50.860;4.698;2022-11-20T15:12:29;2.43;;;1.77;;
8849;SDS011;5638;50.860;4.698;2022-11-20T15:14:57;2.63;;;1.63;;
8849;SDS011;5638;50.860;4.698;2022-11-20T15:17:24;2.97;;;1.93;;
8849;SDS011;5638;50.860;4.698;2022-11-20T15:19:50;2.10;;;1.63;;
8849;SDS011;5638;50.860;4.698;2022-11-20T15:22:17;5.40;;;2.37;;
8849;SDS011;5638;50.860;4.698;2022-11-20T15:24:43;2.10;;;1.70;;
8849;SDS011;5638;50.860;4.698;2022-11-20T15:27:10;2.80;;;2.13;;
8849;SDS011;5638;50.860;4.698;2022-11-20T15:29:37;2.47;;;1.90;;
8849;SDS011;5638;50.860;4.698;2022-11-20T15:32:02;2.63;;;2.03;;
8849;SDS011;5638;50.860;4.698;2022-11-20T15:34:29;3.13;;;2.10;;
8849;SDS011;5638;50.860;4.698;2022-11-20T15:36:54;2.50;;;2.07;;
8849;SDS011;5638;50.860;4.698;2022-11-20T15:39:20;3.57;;;2.00;;
8849;SDS011;5638;50.860;4.698;2022-11-20T15:41:46;2.97;;;2.43;;
8849;SDS011;5638;50.860;4.698;2022-11-20T15:44:12;5.03;;;2.97;;
8849;SDS011;5638;50.860;4.698;2022-11-20T15:46:39;4.83;;;2.43;;
8849;SDS011;5638;50.860;4.698;2022-11-20T15:49:13;6.27;;;2.83;;
8849;SDS011;5638;50.860;4.698;2022-11-20T15:51:42;3.43;;;2.40;;
8849;SDS011;5638;50.860;4.698;2022-11-20T15:54:15;5.80;;;2.80;;
8849;SDS011;5638;50.860;4.698;2022-11-20T15:56:48;4.97;;;2.60;;
8849;SDS011;5638;50.860;4.698;2022-11-20T15:59:17;4.70;;;2.70;;
8849;SDS011;5638;50.860;4.698;2022-11-20T16:01:43;3.13;;;2.13;;
8849;SDS011;5638;50.860;4.698;2022-11-20T16:04:10;3.20;;;2.23;;
8849;SDS011;5638;50.860;4.698;2022-11-20T16:06:38;4.07;;;2.67;;
8849;SDS011;5638;50.860;4.698;2022-11-20T16:09:04;3.57;;;2.50;;
8849;SDS011;5638;50.860;4.698;2022-11-20T16:11:30;4.80;;;2.57;;
8849;SDS011;5638;50.860;4.698;2022-11-20T16:13:56;3.67;;;2.10;;
8849;SDS011;5638;50.860;4.698;2022-11-20T16:16:40;4.37;;;2.60;;
8849;SDS011;5638;50.860;4.698;2022-11-20T16:19:11;4.20;;;2.87;;
8849;SDS011;5638;50.860;4.698;2022-11-20T16:21:38;5.90;;;2.40;;
8849;SDS011;5638;50.860;4.698;2022-11-20T16:24:06;4.60;;;2.40;;
8849;SDS011;5638;50.860;4.698;2022-11-20T16:26:39;6.03;;;2.77;;
8849;SDS011;5638;50.860;4.698;2022-11-20T16:29:05;4.80;;;2.33;;
8849;SDS011;5638;50.860;4.698;2022-11-20T16:31:32;6.70;;;2.50;;
8849;SDS011;5638;50.860;4.698;2022-11-20T16:33:59;7.17;;;2.37;;
8849;SDS011;5638;50.860;4.698;2022-11-20T16:36:32;7.70;;;2.80;;
8849;SDS011;5638;50.860;4.698;2022-11-20T16:38:59;8.50;;;2.43;;
8849;SDS011;5638;50.860;4.698;2022-11-20T16:41:29;5.50;;;2.90;;
8849;SDS011;5638;50.860;4.698;2022-11-20T16:43:58;7.53;;;3.17;;
8849;SDS011;5638;50.860;4.698;2022-11-20T16:46:27;6.97;;;3.03;;
8849;SDS011;5638;50.860;4.698;2022-11-20T16:48:57;4.23;;;2.57;;
8849;SDS011;5638;50.860;4.698;2022-11-20T16:51:27;10.87;;;2.90;;
8849;SDS011;5638;50.860;4.698;2022-11-20T16:53:56;8.47;;;3.17;;
8849;SDS011;5638;50.860;4.698;2022-11-20T16:56:26;8.03;;;2.87;;
8849;SDS011;5638;50.860;4.698;2022-11-20T16:58:53;10.80;;;2.97;;
8849;SDS011;5638;50.860;4.698;2022-11-20T17:01:23;5.17;;;2.50;;
8849;SDS011;5638;50.860;4.698;2022-11-20T17:03:54;6.20;;;2.47;;
8849;SDS011;5638;50.860;4.698;2022-11-20T17:06:24;8.10;;;3.33;;
8849;SDS011;5638;50.860;4.698;2022-11-20T17:08:53;7.50;;;3.43;;
8849;SDS011;5638;50.860;4.698;2022-11-20T17:11:20;8.67;;;3.30;;
8849;SDS011;5638;50.860;4.698;2022-11-20T17:13:47;7.93;;;3.43;;
8849;SDS011;5638;50.860;4.698;2022-11-20T17:16:14;9.23;;;3.90;;
8849;SDS011;5638;50.860;4.698;2022-11-20T17:18:43;8.97;;;3.40;;
8849;SDS011;5638;50.860;4.698;2022-11-20T17:21:10;7.43;;;2.87;;
8849;SDS011;5638;50.860;4.698;2022-11-20T17:23:38;8.73;;;2.60;;
8849;SDS011;5638;50.860;4.698;2022-11-20T17:26:11;8.33;;;2.97;;
8849;SDS011;5638;50.860;4.698;2022-11-20T17:28:41;9.23;;;2.90;;